METAR AND TAF INFORMATION
METAR FOR LYBE
ADDS - METARS form results

(0036 UTC 18 July 2018)
Data provider http://aviationweather.gov/adds/metars/
 
METAR text: LYBE 180030Z 27009KT CAVOK 19/17 Q1010 NOSIG
Conditions at: LYBE (BELGRADE/SURCIN , CS) observed 0030 UTC 18 July 2018
Temperature: 19.0°C (66°F)
Dewpoint: 17.0°C (63°F) [RH = 88%]
Pressure (altimeter): 29.82 inches Hg (1010.0 mb)
Winds: from the W (270 degrees) at 10 MPH (9 knots; 4.7 m/s)
Visibility: 6 or more miles (10+ km)
Ceiling: ceiling and visibility are OK
Clouds: unknown
Weather: no significant weather observed at this time

METAR text: LYBE 180000Z 27011KT CAVOK 18/17 Q1010 NOSIG
Conditions at: LYBE (BELGRADE/SURCIN , CS) observed 0000 UTC 18 July 2018
Temperature: 18.0°C (64°F)
Dewpoint: 17.0°C (63°F) [RH = 94%]
Pressure (altimeter): 29.82 inches Hg (1010.0 mb)
Winds: from the W (270 degrees) at 13 MPH (11 knots; 5.7 m/s)
Visibility: 6 or more miles (10+ km)
Ceiling: ceiling and visibility are OK
Clouds: unknown
Weather: no significant weather observed at this time

Forecast for: LYBE (BELGRADE/SURCIN , CS)
Text: TAF LYBE 172300Z 1800/1824 27010KT CAVOK TX25/1813Z TN17/1803Z
Forecast period: 0000 to 0400 UTC 18 July 2018
Forecast type: FROM: standard forecast or significant change
Winds: from the W (270 degrees) at 12 MPH (10 knots; 5.2 m/s)
Visibility: 6 or more miles (10+ km)
Clouds: not forecast
Weather: no significant weather forecast for this period
Text: BECMG 1804/1806 33015KT
Forecast period: 0400 UTC 18 July 2018 to 0000 UTC 19 July 2018
Forecast type: BECOMING: Conditions expected to become as follows by 0600 UTC 18 July 2018
Winds: from the NNW (330 degrees) at 17 MPH (15 knots; 7.8 m/s)
Visibility: 6 or more miles (10+ km)
Weather: no significant weather forecast for this period
Text: TEMPO 1810/1816 33025KT SHRA SCT030TCU SCT033
Forecast period: 1000 to 1600 UTC 18 July 2018
Forecast type: TEMPORARY: The following changes expected for less than half the time period
Winds: from the NNW (330 degrees) at 29 MPH (25 knots; 13.0 m/s)
Clouds: scattered clouds at 3000 feet AGL
scattered clouds at 3300 feet AGL
Weather: SHRA  (rain showers)

 AIRPORT MAP

 RUNWAY INFORMATION
Runway 12 Runway length 11155 ft Runway width 148 ft
Runway elevation 318 ft Runway displaced threshold 0 ft Runway heading 122
Runway 30 Runway length 11155 ft Runway width 148 ft
Runway elevation 335 ft Runway displaced threshold 1312 ft Runway heading 302

 AIRPORT FREQUENCIES
Type APP Name APP Frequency 119.1 MHZ
Type ATIS Name INFO Frequency 122.925 MHZ
Type TWR Name TWR Frequency 118.1 MHZ

 AIRPORT NEAR NAVIGATION AIDS
Type VOR-DME Name Beograd Frequency 112300 KHZ
Type NDB Name Beograd Frequency 316 KHZ
Type NDB Name Beograd Frequency 380 KHZ
Type NDB Name Beograd Frequency 355 KHZ



Air Greece virtual AIrline - All rights reserved 2018 - Powered by Virtual Airlines Manager [v2.6.2]